Prineville, Oregon
Current Conditions -  °F | °C
As of 3:55 AM on Thursday 27 Nov 2014 (Local Time) from KS39 Reporting Station
Scattered Clouds Scattered Clouds  
Wind Chill: 52°   Ceiling: Unl
Heat Index: 52°   Visibility: 10mi
Dew Point: 30°   Wind: 8mph
Humidity: 44%   Direction: 160°SSE
Pressure: 30.04"   Gusts: 17mph
Location:  44.3°N, 120.84°W
Report Text: KS39 271155Z AUTO 16007G15KT 10SM SCT070 11/M01 A3004 RMK AO2
Loading
Personal Weather Stations






























Interactive Weather Map New forecast layout! Learn more

10-Day Weather Forecast

Advertisements
Track Severe Weather on mobile